sensor_id;sensor_type;location;lat;lon;timestamp;P1;durP1;ratioP1;P2;durP2;ratioP2
78298;SDS011;67556;55.656;12.590;2024-02-16T00:00:20;15.13;;;5.75;;
78298;SDS011;67556;55.656;12.590;2024-02-16T00:02:47;19.17;;;6.95;;
78298;SDS011;67556;55.656;12.590;2024-02-16T00:05:37;18.35;;;7.45;;
78298;SDS011;67556;55.656;12.590;2024-02-16T00:08:24;15.88;;;7.30;;
78298;SDS011;67556;55.656;12.590;2024-02-16T00:10:51;24.83;;;9.55;;
78298;SDS011;67556;55.656;12.590;2024-02-16T00:13:37;18.08;;;7.40;;
78298;SDS011;67556;55.656;12.590;2024-02-16T00:16:22;14.48;;;7.35;;
78298;SDS011;67556;55.656;12.590;2024-02-16T00:18:49;15.73;;;7.90;;
78298;SDS011;67556;55.656;12.590;2024-02-16T00:21:34;13.30;;;5.70;;
78298;SDS011;67556;55.656;12.590;2024-02-16T00:24:19;18.27;;;7.53;;
78298;SDS011;67556;55.656;12.590;2024-02-16T00:26:46;17.85;;;7.85;;
78298;SDS011;67556;55.656;12.590;2024-02-16T00:29:33;19.08;;;8.25;;
78298;SDS011;67556;55.656;12.590;2024-02-16T00:31:59;16.02;;;7.15;;
78298;SDS011;67556;55.656;12.590;2024-02-16T00:34:44;17.95;;;7.93;;
78298;SDS011;67556;55.656;12.590;2024-02-16T00:37:29;18.95;;;8.90;;
78298;SDS011;67556;55.656;12.590;2024-02-16T00:39:55;19.08;;;8.40;;
78298;SDS011;67556;55.656;12.590;2024-02-16T00:42:27;15.98;;;6.93;;
78298;SDS011;67556;55.656;12.590;2024-02-16T00:45:16;22.38;;;8.18;;
78298;SDS011;67556;55.656;12.590;2024-02-16T00:48:01;24.33;;;8.57;;
78298;SDS011;67556;55.656;12.590;2024-02-16T00:50:28;18.00;;;7.75;;
78298;SDS011;67556;55.656;12.590;2024-02-16T00:53:13;20.58;;;8.23;;
78298;SDS011;67556;55.656;12.590;2024-02-16T00:55:40;23.88;;;8.73;;
78298;SDS011;67556;55.656;12.590;2024-02-16T00:58:25;22.55;;;8.40;;
78298;SDS011;67556;55.656;12.590;2024-02-16T01:00:59;22.83;;;8.07;;
78298;SDS011;67556;55.656;12.590;2024-02-16T01:03:35;18.35;;;8.50;;
78298;SDS011;67556;55.656;12.590;2024-02-16T01:06:04;23.95;;;8.80;;
78298;SDS011;67556;55.656;12.590;2024-02-16T01:08:33;24.25;;;9.65;;
78298;SDS011;67556;55.656;12.590;2024-02-16T01:11:00;24.00;;;9.27;;
78298;SDS011;67556;55.656;12.590;2024-02-16T01:13:26;22.30;;;8.98;;
78298;SDS011;67556;55.656;12.590;2024-02-16T01:15:55;21.25;;;9.10;;
78298;SDS011;67556;55.656;12.590;2024-02-16T01:18:23;20.00;;;8.50;;
78298;SDS011;67556;55.656;12.590;2024-02-16T01:21:05;21.67;;;9.18;;
78298;SDS011;67556;55.656;12.590;2024-02-16T01:23:34;29.27;;;10.40;;
78298;SDS011;67556;55.656;12.590;2024-02-16T01:26:18;27.42;;;8.30;;
78298;SDS011;67556;55.656;12.590;2024-02-16T01:28:47;24.08;;;8.75;;
78298;SDS011;67556;55.656;12.590;2024-02-16T01:31:15;23.63;;;8.75;;
78298;SDS011;67556;55.656;12.590;2024-02-16T01:33:49;23.27;;;9.77;;
78298;SDS011;67556;55.656;12.590;2024-02-16T01:36:16;36.58;;;10.13;;
78298;SDS011;67556;55.656;12.590;2024-02-16T01:38:47;32.03;;;10.68;;
78298;SDS011;67556;55.656;12.590;2024-02-16T01:41:13;30.17;;;10.15;;
78298;SDS011;67556;55.656;12.590;2024-02-16T01:43:41;27.77;;;8.77;;
78298;SDS011;67556;55.656;12.590;2024-02-16T01:46:07;24.05;;;9.10;;
78298;SDS011;67556;55.656;12.590;2024-02-16T01:48:35;25.25;;;9.45;;
78298;SDS011;67556;55.656;12.590;2024-02-16T01:51:03;24.95;;;9.48;;
78298;SDS011;67556;55.656;12.590;2024-02-16T01:53:31;28.75;;;9.05;;
78298;SDS011;67556;55.656;12.590;2024-02-16T01:55:59;26.25;;;8.82;;
78298;SDS011;67556;55.656;12.590;2024-02-16T01:58:28;20.58;;;8.68;;
78298;SDS011;67556;55.656;12.590;2024-02-16T02:00:55;24.17;;;9.10;;
78298;SDS011;67556;55.656;12.590;2024-02-16T02:03:22;22.23;;;8.93;;
78298;SDS011;67556;55.656;12.590;2024-02-16T02:05:48;24.70;;;9.30;;
78298;SDS011;67556;55.656;12.590;2024-02-16T02:08:17;35.30;;;10.35;;
78298;SDS011;67556;55.656;12.590;2024-02-16T02:10:45;51.70;;;11.98;;
78298;SDS011;67556;55.656;12.590;2024-02-16T02:13:11;20.15;;;9.20;;
78298;SDS011;67556;55.656;12.590;2024-02-16T02:15:44;22.83;;;10.15;;
78298;SDS011;67556;55.656;12.590;2024-02-16T02:18:26;23.58;;;8.43;;
78298;SDS011;67556;55.656;12.590;2024-02-16T02:20:59;27.35;;;9.90;;
78298;SDS011;67556;55.656;12.590;2024-02-16T02:23:34;23.77;;;8.75;;
78298;SDS011;67556;55.656;12.590;2024-02-16T02:26:18;27.65;;;9.98;;
78298;SDS011;67556;55.656;12.590;2024-02-16T02:28:47;22.85;;;9.90;;
78298;SDS011;67556;55.656;12.590;2024-02-16T02:31:26;20.58;;;10.60;;
78298;SDS011;67556;55.656;12.590;2024-02-16T02:33:52;23.13;;;10.38;;
78298;SDS011;67556;55.656;12.590;2024-02-16T02:36:30;19.58;;;9.73;;
78298;SDS011;67556;55.656;12.590;2024-02-16T02:39:00;20.80;;;10.35;;
78298;SDS011;67556;55.656;12.590;2024-02-16T02:41:45;17.25;;;9.23;;
78298;SDS011;67556;55.656;12.590;2024-02-16T02:44:13;20.20;;;9.25;;
78298;SDS011;67556;55.656;12.590;2024-02-16T02:46:40;20.17;;;8.57;;
78298;SDS011;67556;55.656;12.590;2024-02-16T02:49:22;17.13;;;8.60;;
78298;SDS011;67556;55.656;12.590;2024-02-16T02:52:07;17.17;;;9.27;;
78298;SDS011;67556;55.656;12.590;2024-02-16T02:54:41;12.95;;;7.68;;
78298;SDS011;67556;55.656;12.590;2024-02-16T02:57:08;14.93;;;8.05;;
78298;SDS011;67556;55.656;12.590;2024-02-16T02:59:47;15.10;;;8.50;;
78298;SDS011;67556;55.656;12.590;2024-02-16T03:02:14;13.70;;;7.38;;
78298;SDS011;67556;55.656;12.590;2024-02-16T03:04:41;17.48;;;8.95;;
78298;SDS011;67556;55.656;12.590;2024-02-16T03:07:13;15.63;;;8.02;;
78298;SDS011;67556;55.656;12.590;2024-02-16T03:09:42;17.00;;;7.60;;
78298;SDS011;67556;55.656;12.590;2024-02-16T03:12:20;23.80;;;8.75;;
78298;SDS011;67556;55.656;12.590;2024-02-16T03:14:47;17.65;;;8.48;;
78298;SDS011;67556;55.656;12.590;2024-02-16T03:17:14;12.43;;;8.30;;
78298;SDS011;67556;55.656;12.590;2024-02-16T03:19:42;15.05;;;8.40;;
78298;SDS011;67556;55.656;12.590;2024-02-16T03:22:09;22.90;;;8.73;;
78298;SDS011;67556;55.656;12.590;2024-02-16T03:24:38;21.45;;;9.60;;
78298;SDS011;67556;55.656;12.590;2024-02-16T03:27:13;25.63;;;10.52;;
78298;SDS011;67556;55.656;12.590;2024-02-16T03:29:41;36.20;;;10.40;;
78298;SDS011;67556;55.656;12.590;2024-02-16T03:32:08;18.65;;;9.20;;
78298;SDS011;67556;55.656;12.590;2024-02-16T03:34:35;19.75;;;8.57;;
78298;SDS011;67556;55.656;12.590;2024-02-16T03:37:08;18.85;;;9.07;;
78298;SDS011;67556;55.656;12.590;2024-02-16T03:39:35;22.63;;;10.18;;
78298;SDS011;67556;55.656;12.590;2024-02-16T03:42:03;19.08;;;10.40;;
78298;SDS011;67556;55.656;12.590;2024-02-16T03:44:32;18.63;;;8.77;;
78298;SDS011;67556;55.656;12.590;2024-02-16T03:46:58;21.08;;;9.90;;
78298;SDS011;67556;55.656;12.590;2024-02-16T03:49:37;17.73;;;9.27;;
78298;SDS011;67556;55.656;12.590;2024-02-16T03:52:09;42.33;;;12.00;;
78298;SDS011;67556;55.656;12.590;2024-02-16T03:54:36;18.35;;;11.05;;
78298;SDS011;67556;55.656;12.590;2024-02-16T03:57:03;21.45;;;11.15;;
78298;SDS011;67556;55.656;12.590;2024-02-16T03:59:36;26.95;;;10.93;;
78298;SDS011;67556;55.656;12.590;2024-02-16T04:02:03;21.70;;;10.77;;
78298;SDS011;67556;55.656;12.590;2024-02-16T04:04:29;20.55;;;10.88;;
78298;SDS011;67556;55.656;12.590;2024-02-16T04:06:55;20.30;;;12.18;;
78298;SDS011;67556;55.656;12.590;2024-02-16T04:09:22;19.17;;;11.77;;
78298;SDS011;67556;55.656;12.590;2024-02-16T04:11:49;26.58;;;12.32;;
78298;SDS011;67556;55.656;12.590;2024-02-16T04:14:17;19.50;;;11.00;;
78298;SDS011;67556;55.656;12.590;2024-02-16T04:16:44;19.35;;;12.25;;
78298;SDS011;67556;55.656;12.590;2024-02-16T04:19:12;60.28;;;14.30;;
78298;SDS011;67556;55.656;12.590;2024-02-16T04:21:39;25.40;;;12.15;;
78298;SDS011;67556;55.656;12.590;2024-02-16T04:24:07;24.77;;;11.75;;
78298;SDS011;67556;55.656;12.590;2024-02-16T04:26:34;24.55;;;12.73;;
78298;SDS011;67556;55.656;12.590;2024-02-16T04:29:00;22.88;;;12.48;;
78298;SDS011;67556;55.656;12.590;2024-02-16T04:31:27;23.17;;;12.65;;
78298;SDS011;67556;55.656;12.590;2024-02-16T04:33:55;21.95;;;11.73;;
78298;SDS011;67556;55.656;12.590;2024-02-16T04:36:23;25.63;;;13.10;;
78298;SDS011;67556;55.656;12.590;2024-02-16T04:38:50;22.17;;;13.15;;
78298;SDS011;67556;55.656;12.590;2024-02-16T04:41:16;27.80;;;13.85;;
78298;SDS011;67556;55.656;12.590;2024-02-16T04:43:43;23.42;;;12.90;;
78298;SDS011;67556;55.656;12.590;2024-02-16T04:46:13;25.10;;;13.38;;
78298;SDS011;67556;55.656;12.590;2024-02-16T04:51:09;22.50;;;12.48;;
78298;SDS011;67556;55.656;12.590;2024-02-16T04:53:37;21.73;;;13.23;;
78298;SDS011;67556;55.656;12.590;2024-02-16T04:56:04;22.05;;;12.88;;
78298;SDS011;67556;55.656;12.590;2024-02-16T04:58:31;22.58;;;12.50;;
78298;SDS011;67556;55.656;12.590;2024-02-16T05:00:58;21.02;;;12.43;;
78298;SDS011;67556;55.656;12.590;2024-02-16T05:03:27;20.55;;;11.38;;
78298;SDS011;67556;55.656;12.590;2024-02-16T05:05:54;19.55;;;11.93;;
78298;SDS011;67556;55.656;12.590;2024-02-16T05:08:23;21.40;;;13.15;;
78298;SDS011;67556;55.656;12.590;2024-02-16T05:10:50;23.08;;;12.85;;
78298;SDS011;67556;55.656;12.590;2024-02-16T05:13:17;21.35;;;13.02;;
78298;SDS011;67556;55.656;12.590;2024-02-16T05:15:45;21.88;;;12.27;;
78298;SDS011;67556;55.656;12.590;2024-02-16T05:18:13;21.38;;;12.43;;
78298;SDS011;67556;55.656;12.590;2024-02-16T05:20:40;20.48;;;13.77;;
78298;SDS011;67556;55.656;12.590;2024-02-16T05:23:07;23.00;;;13.55;;
78298;SDS011;67556;55.656;12.590;2024-02-16T05:25:34;21.65;;;12.88;;
78298;SDS011;67556;55.656;12.590;2024-02-16T05:28:01;20.85;;;12.50;;
78298;SDS011;67556;55.656;12.590;2024-02-16T05:30:27;23.13;;;13.30;;
78298;SDS011;67556;55.656;12.590;2024-02-16T05:32:55;22.58;;;14.75;;
78298;SDS011;67556;55.656;12.590;2024-02-16T05:35:24;19.90;;;13.45;;
78298;SDS011;67556;55.656;12.590;2024-02-16T05:37:54;24.50;;;13.43;;
78298;SDS011;67556;55.656;12.590;2024-02-16T05:40:25;19.98;;;12.18;;
78298;SDS011;67556;55.656;12.590;2024-02-16T05:43:00;23.42;;;14.60;;
78298;SDS011;67556;55.656;12.590;2024-02-16T05:45:28;22.45;;;13.52;;
78298;SDS011;67556;55.656;12.590;2024-02-16T05:47:55;22.35;;;14.23;;
78298;SDS011;67556;55.656;12.590;2024-02-16T05:50:23;22.88;;;14.32;;
78298;SDS011;67556;55.656;12.590;2024-02-16T05:52:49;22.15;;;13.48;;
78298;SDS011;67556;55.656;12.590;2024-02-16T05:55:17;21.13;;;13.13;;
78298;SDS011;67556;55.656;12.590;2024-02-16T05:57:49;20.98;;;13.70;;
78298;SDS011;67556;55.656;12.590;2024-02-16T06:00:19;20.90;;;12.32;;
78298;SDS011;67556;55.656;12.590;2024-02-16T06:02:53;20.60;;;12.60;;
78298;SDS011;67556;55.656;12.590;2024-02-16T06:05:21;23.73;;;13.18;;
78298;SDS011;67556;55.656;12.590;2024-02-16T06:07:49;17.88;;;12.77;;
78298;SDS011;67556;55.656;12.590;2024-02-16T06:10:20;19.55;;;12.25;;
78298;SDS011;67556;55.656;12.590;2024-02-16T06:12:48;18.55;;;12.23;;
78298;SDS011;67556;55.656;12.590;2024-02-16T06:15:15;22.30;;;12.52;;
78298;SDS011;67556;55.656;12.590;2024-02-16T06:17:49;21.42;;;13.70;;
78298;SDS011;67556;55.656;12.590;2024-02-16T06:20:16;20.48;;;13.82;;
78298;SDS011;67556;55.656;12.590;2024-02-16T06:22:43;18.42;;;12.68;;
78298;SDS011;67556;55.656;12.590;2024-02-16T06:25:15;20.77;;;12.38;;
78298;SDS011;67556;55.656;12.590;2024-02-16T06:27:42;20.10;;;13.18;;
78298;SDS011;67556;55.656;12.590;2024-02-16T06:30:09;22.00;;;12.68;;
78298;SDS011;67556;55.656;12.590;2024-02-16T06:32:38;19.83;;;11.77;;
78298;SDS011;67556;55.656;12.590;2024-02-16T06:35:12;19.05;;;12.02;;
78298;SDS011;67556;55.656;12.590;2024-02-16T06:37:41;20.20;;;13.07;;
78298;SDS011;67556;55.656;12.590;2024-02-16T06:40:10;22.92;;;11.93;;
78298;SDS011;67556;55.656;12.590;2024-02-16T06:42:39;21.50;;;12.60;;
78298;SDS011;67556;55.656;12.590;2024-02-16T06:45:06;21.02;;;12.13;;
78298;SDS011;67556;55.656;12.590;2024-02-16T06:47:34;23.38;;;12.30;;
78298;SDS011;67556;55.656;12.590;2024-02-16T06:50:02;19.75;;;11.98;;
78298;SDS011;67556;55.656;12.590;2024-02-16T06:52:31;19.92;;;12.27;;
78298;SDS011;67556;55.656;12.590;2024-02-16T06:54:59;20.73;;;11.98;;
78298;SDS011;67556;55.656;12.590;2024-02-16T06:57:26;22.48;;;13.60;;
78298;SDS011;67556;55.656;12.590;2024-02-16T06:59:52;20.52;;;12.75;;
78298;SDS011;67556;55.656;12.590;2024-02-16T07:02:20;18.83;;;12.60;;
78298;SDS011;67556;55.656;12.590;2024-02-16T07:04:47;22.00;;;12.60;;
78298;SDS011;67556;55.656;12.590;2024-02-16T07:07:20;18.42;;;11.77;;
78298;SDS011;67556;55.656;12.590;2024-02-16T07:09:49;18.60;;;11.20;;
78298;SDS011;67556;55.656;12.590;2024-02-16T07:12:21;21.08;;;11.77;;
78298;SDS011;67556;55.656;12.590;2024-02-16T07:14:48;20.02;;;12.02;;
78298;SDS011;67556;55.656;12.590;2024-02-16T07:17:15;18.73;;;11.40;;
78298;SDS011;67556;55.656;12.590;2024-02-16T07:19:44;17.70;;;12.27;;
78298;SDS011;67556;55.656;12.590;2024-02-16T07:22:11;20.38;;;10.52;;
78298;SDS011;67556;55.656;12.590;2024-02-16T07:24:38;15.63;;;10.13;;
78298;SDS011;67556;55.656;12.590;2024-02-16T07:27:21;19.67;;;11.80;;
78298;SDS011;67556;55.656;12.590;2024-02-16T07:29:48;18.27;;;11.45;;
78298;SDS011;67556;55.656;12.590;2024-02-16T07:32:22;17.83;;;11.23;;
78298;SDS011;67556;55.656;12.590;2024-02-16T07:34:55;17.70;;;11.18;;
78298;SDS011;67556;55.656;12.590;2024-02-16T07:37:27;17.52;;;10.63;;
78298;SDS011;67556;55.656;12.590;2024-02-16T07:39:54;18.30;;;10.88;;
78298;SDS011;67556;55.656;12.590;2024-02-16T07:42:28;19.83;;;12.23;;
78298;SDS011;67556;55.656;12.590;2024-02-16T07:45:08;19.10;;;10.98;;
78298;SDS011;67556;55.656;12.590;2024-02-16T07:47:35;17.20;;;10.80;;
78298;SDS011;67556;55.656;12.590;2024-02-16T07:50:04;16.25;;;10.48;;
78298;SDS011;67556;55.656;12.590;2024-02-16T07:52:37;17.65;;;11.55;;
78298;SDS011;67556;55.656;12.590;2024-02-16T07:55:12;19.05;;;10.15;;
78298;SDS011;67556;55.656;12.590;2024-02-16T07:57:48;15.88;;;10.35;;
78298;SDS011;67556;55.656;12.590;2024-02-16T08:00:16;17.85;;;10.80;;
78298;SDS011;67556;55.656;12.590;2024-02-16T08:02:44;18.05;;;10.70;;
78298;SDS011;67556;55.656;12.590;2024-02-16T08:05:11;16.52;;;10.30;;
78298;SDS011;67556;55.656;12.590;2024-02-16T08:07:46;18.15;;;11.80;;
78298;SDS011;67556;55.656;12.590;2024-02-16T08:10:14;15.02;;;10.13;;
78298;SDS011;67556;55.656;12.590;2024-02-16T08:12:42;17.67;;;10.38;;
78298;SDS011;67556;55.656;12.590;2024-02-16T08:15:10;17.92;;;10.85;;
78298;SDS011;67556;55.656;12.590;2024-02-16T08:17:36;16.73;;;10.57;;
78298;SDS011;67556;55.656;12.590;2024-02-16T08:20:08;14.55;;;10.00;;
78298;SDS011;67556;55.656;12.590;2024-02-16T08:22:34;15.65;;;10.82;;
78298;SDS011;67556;55.656;12.590;2024-02-16T08:25:03;17.17;;;10.60;;
78298;SDS011;67556;55.656;12.590;2024-02-16T08:27:30;17.77;;;10.32;;
78298;SDS011;67556;55.656;12.590;2024-02-16T08:29:58;15.10;;;10.70;;
78298;SDS011;67556;55.656;12.590;2024-02-16T08:32:35;15.50;;;10.05;;
78298;SDS011;67556;55.656;12.590;2024-02-16T08:35:01;19.15;;;9.65;;
78298;SDS011;67556;55.656;12.590;2024-02-16T08:37:34;14.68;;;10.27;;
78298;SDS011;67556;55.656;12.590;2024-02-16T08:40:05;15.27;;;8.95;;
78298;SDS011;67556;55.656;12.590;2024-02-16T08:42:32;13.80;;;10.27;;
78298;SDS011;67556;55.656;12.590;2024-02-16T08:44:59;16.75;;;11.73;;
78298;SDS011;67556;55.656;12.590;2024-02-16T08:47:27;15.48;;;9.73;;
78298;SDS011;67556;55.656;12.590;2024-02-16T08:49:55;13.80;;;9.63;;
78298;SDS011;67556;55.656;12.590;2024-02-16T08:52:23;16.02;;;10.02;;
78298;SDS011;67556;55.656;12.590;2024-02-16T08:54:55;16.15;;;9.43;;
78298;SDS011;67556;55.656;12.590;2024-02-16T08:57:22;14.70;;;9.68;;
78298;SDS011;67556;55.656;12.590;2024-02-16T08:59:55;16.48;;;10.25;;
78298;SDS011;67556;55.656;12.590;2024-02-16T09:02:29;18.25;;;10.48;;
78298;SDS011;67556;55.656;12.590;2024-02-16T09:04:59;16.73;;;9.90;;
78298;SDS011;67556;55.656;12.590;2024-02-16T09:07:33;16.48;;;10.10;;
78298;SDS011;67556;55.656;12.590;2024-02-16T09:10:00;15.95;;;9.45;;
78298;SDS011;67556;55.656;12.590;2024-02-16T09:12:28;16.70;;;10.52;;
78298;SDS011;67556;55.656;12.590;2024-02-16T09:14:54;15.55;;;10.15;;
78298;SDS011;67556;55.656;12.590;2024-02-16T09:17:21;14.40;;;9.73;;
78298;SDS011;67556;55.656;12.590;2024-02-16T09:19:56;14.73;;;10.10;;
78298;SDS011;67556;55.656;12.590;2024-02-16T09:22:29;17.05;;;10.70;;
78298;SDS011;67556;55.656;12.590;2024-02-16T09:24:55;13.48;;;9.48;;
78298;SDS011;67556;55.656;12.590;2024-02-16T09:27:30;13.70;;;9.57;;
78298;SDS011;67556;55.656;12.590;2024-02-16T09:30:10;14.18;;;9.40;;
78298;SDS011;67556;55.656;12.590;2024-02-16T09:32:39;16.00;;;9.60;;
78298;SDS011;67556;55.656;12.590;2024-02-16T09:35:20;16.17;;;9.82;;
78298;SDS011;67556;55.656;12.590;2024-02-16T09:37:58;14.32;;;9.90;;
78298;SDS011;67556;55.656;12.590;2024-02-16T09:40:33;14.23;;;9.82;;
78298;SDS011;67556;55.656;12.590;2024-02-16T09:43:25;15.95;;;9.00;;
78298;SDS011;67556;55.656;12.590;2024-02-16T09:46:10;13.45;;;8.45;;
78298;SDS011;67556;55.656;12.590;2024-02-16T09:48:55;16.92;;;9.98;;
78298;SDS011;67556;55.656;12.590;2024-02-16T09:51:41;17.50;;;11.25;;
78298;SDS011;67556;55.656;12.590;2024-02-16T09:54:19;13.98;;;9.70;;
78298;SDS011;67556;55.656;12.590;2024-02-16T09:57:02;14.35;;;9.45;;
78298;SDS011;67556;55.656;12.590;2024-02-16T09:59:36;13.02;;;9.10;;
78298;SDS011;67556;55.656;12.590;2024-02-16T10:02:05;10.82;;;8.48;;
78298;SDS011;67556;55.656;12.590;2024-02-16T10:04:32;13.80;;;9.70;;
78298;SDS011;67556;55.656;12.590;2024-02-16T10:06:59;11.18;;;8.43;;
78298;SDS011;67556;55.656;12.590;2024-02-16T10:09:45;10.52;;;9.00;;
78298;SDS011;67556;55.656;12.590;2024-02-16T10:12:30;13.32;;;8.57;;
78298;SDS011;67556;55.656;12.590;2024-02-16T10:15:18;11.00;;;8.13;;
78298;SDS011;67556;55.656;12.590;2024-02-16T10:17:56;13.07;;;8.70;;
78298;SDS011;67556;55.656;12.590;2024-02-16T10:20:25;12.10;;;8.80;;
78298;SDS011;67556;55.656;12.590;2024-02-16T10:23:10;11.48;;;8.75;;
78298;SDS011;67556;55.656;12.590;2024-02-16T10:25:50;15.48;;;9.73;;
78298;SDS011;67556;55.656;12.590;2024-02-16T10:28:17;12.15;;;8.57;;
78298;SDS011;67556;55.656;12.590;2024-02-16T10:31:05;13.63;;;8.00;;
78298;SDS011;67556;55.656;12.590;2024-02-16T10:33:32;12.40;;;8.68;;
78298;SDS011;67556;55.656;12.590;2024-02-16T10:36:17;10.57;;;8.80;;
78298;SDS011;67556;55.656;12.590;2024-02-16T10:38:51;11.25;;;8.23;;
78298;SDS011;67556;55.656;12.590;2024-02-16T10:41:20;11.50;;;8.68;;
78298;SDS011;67556;55.656;12.590;2024-02-16T10:43:48;11.57;;;7.95;;
78298;SDS011;67556;55.656;12.590;2024-02-16T10:46:22;12.32;;;7.55;;
78298;SDS011;67556;55.656;12.590;2024-02-16T10:48:53;10.15;;;7.75;;
78298;SDS011;67556;55.656;12.590;2024-02-16T10:51:28;10.85;;;7.28;;
78298;SDS011;67556;55.656;12.590;2024-02-16T10:53:57;10.82;;;8.13;;
78298;SDS011;67556;55.656;12.590;2024-02-16T10:56:28;9.77;;;8.00;;
78298;SDS011;67556;55.656;12.590;2024-02-16T10:59:04;8.38;;;6.80;;
78298;SDS011;67556;55.656;12.590;2024-02-16T11:01:32;9.57;;;7.25;;
78298;SDS011;67556;55.656;12.590;2024-02-16T11:04:03;10.07;;;7.93;;
78298;SDS011;67556;55.656;12.590;2024-02-16T11:06:32;11.63;;;7.30;;
78298;SDS011;67556;55.656;12.590;2024-02-16T11:09:03;10.10;;;7.43;;
78298;SDS011;67556;55.656;12.590;2024-02-16T11:11:58;10.30;;;7.00;;
78298;SDS011;67556;55.656;12.590;2024-02-16T11:14:35;9.00;;;7.90;;
78298;SDS011;67556;55.656;12.590;2024-02-16T11:17:08;18.88;;;8.65;;
78298;SDS011;67556;55.656;12.590;2024-02-16T11:19:35;9.77;;;7.43;;
78298;SDS011;67556;55.656;12.590;2024-02-16T11:22:04;9.02;;;7.18;;
78298;SDS011;67556;55.656;12.590;2024-02-16T11:24:42;10.70;;;7.00;;
78298;SDS011;67556;55.656;12.590;2024-02-16T11:27:10;9.77;;;6.80;;
78298;SDS011;67556;55.656;12.590;2024-02-16T11:29:38;9.73;;;7.18;;
78298;SDS011;67556;55.656;12.590;2024-02-16T11:32:11;11.43;;;7.95;;
78298;SDS011;67556;55.656;12.590;2024-02-16T11:34:37;8.95;;;6.63;;
78298;SDS011;67556;55.656;12.590;2024-02-16T11:37:04;9.35;;;8.25;;
78298;SDS011;67556;55.656;12.590;2024-02-16T11:39:44;9.52;;;7.13;;
78298;SDS011;67556;55.656;12.590;2024-02-16T11:42:19;10.48;;;7.53;;
78298;SDS011;67556;55.656;12.590;2024-02-16T11:45:05;10.88;;;7.45;;
78298;SDS011;67556;55.656;12.590;2024-02-16T11:47:50;12.85;;;7.07;;
78298;SDS011;67556;55.656;12.590;2024-02-16T11:50:23;8.50;;;6.78;;
78298;SDS011;67556;55.656;12.590;2024-02-16T11:52:53;11.35;;;7.45;;
78298;SDS011;67556;55.656;12.590;2024-02-16T11:55:20;10.07;;;7.18;;
78298;SDS011;67556;55.656;12.590;2024-02-16T11:57:59;9.40;;;7.00;;
78298;SDS011;67556;55.656;12.590;2024-02-16T12:00:32;9.75;;;7.32;;
78298;SDS011;67556;55.656;12.590;2024-02-16T12:02:59;10.15;;;7.43;;
78298;SDS011;67556;55.656;12.590;2024-02-16T12:05:27;10.40;;;7.95;;
78298;SDS011;67556;55.656;12.590;2024-02-16T12:07:53;8.27;;;6.93;;
78298;SDS011;67556;55.656;12.590;2024-02-16T12:10:20;9.57;;;6.95;;
78298;SDS011;67556;55.656;12.590;2024-02-16T12:12:47;10.43;;;7.13;;
78298;SDS011;67556;55.656;12.590;2024-02-16T12:15:17;8.30;;;7.00;;
78298;SDS011;67556;55.656;12.590;2024-02-16T12:17:45;10.43;;;7.95;;
78298;SDS011;67556;55.656;12.590;2024-02-16T12:20:14;10.57;;;7.13;;
78298;SDS011;67556;55.656;12.590;2024-02-16T12:22:41;9.35;;;6.90;;
78298;SDS011;67556;55.656;12.590;2024-02-16T12:25:09;9.27;;;7.20;;
78298;SDS011;67556;55.656;12.590;2024-02-16T12:27:35;13.93;;;7.40;;
78298;SDS011;67556;55.656;12.590;2024-02-16T12:30:02;9.40;;;7.07;;
78298;SDS011;67556;55.656;12.590;2024-02-16T12:32:30;7.70;;;6.88;;
78298;SDS011;67556;55.656;12.590;2024-02-16T12:35:03;9.73;;;7.25;;
78298;SDS011;67556;55.656;12.590;2024-02-16T12:37:37;10.50;;;7.07;;
78298;SDS011;67556;55.656;12.590;2024-02-16T12:40:05;10.02;;;7.18;;
78298;SDS011;67556;55.656;12.590;2024-02-16T12:42:48;10.02;;;6.55;;
78298;SDS011;67556;55.656;12.590;2024-02-16T12:45:17;9.25;;;6.93;;
78298;SDS011;67556;55.656;12.590;2024-02-16T12:47:45;9.57;;;7.00;;
78298;SDS011;67556;55.656;12.590;2024-02-16T12:50:12;9.40;;;6.55;;
78298;SDS011;67556;55.656;12.590;2024-02-16T12:52:39;8.15;;;6.97;;
78298;SDS011;67556;55.656;12.590;2024-02-16T12:57:50;9.90;;;6.97;;
78298;SDS011;67556;55.656;12.590;2024-02-16T13:00:17;9.93;;;7.35;;
78298;SDS011;67556;55.656;12.590;2024-02-16T13:02:53;8.27;;;7.30;;
78298;SDS011;67556;55.656;12.590;2024-02-16T13:05:22;8.20;;;7.18;;
78298;SDS011;67556;55.656;12.590;2024-02-16T13:07:48;9.80;;;7.00;;
78298;SDS011;67556;55.656;12.590;2024-02-16T13:10:33;9.63;;;7.03;;
78298;SDS011;67556;55.656;12.590;2024-02-16T13:13:00;9.07;;;7.50;;
78298;SDS011;67556;55.656;12.590;2024-02-16T13:15:32;9.70;;;6.93;;
78298;SDS011;67556;55.656;12.590;2024-02-16T13:18:13;7.90;;;6.38;;
78298;SDS011;67556;55.656;12.590;2024-02-16T13:20:51;10.35;;;7.30;;
78298;SDS011;67556;55.656;12.590;2024-02-16T13:23:20;10.50;;;6.90;;
78298;SDS011;67556;55.656;12.590;2024-02-16T13:25:49;13.57;;;7.28;;
78298;SDS011;67556;55.656;12.590;2024-02-16T13:28:16;9.18;;;7.00;;
78298;SDS011;67556;55.656;12.590;2024-02-16T13:30:42;11.63;;;7.20;;
78298;SDS011;67556;55.656;12.590;2024-02-16T13:33:18;10.20;;;7.28;;
78298;SDS011;67556;55.656;12.590;2024-02-16T13:35:45;11.23;;;7.13;;
78298;SDS011;67556;55.656;12.590;2024-02-16T13:38:15;9.65;;;6.93;;
78298;SDS011;67556;55.656;12.590;2024-02-16T13:40:43;10.68;;;7.13;;
78298;SDS011;67556;55.656;12.590;2024-02-16T13:43:16;9.32;;;7.15;;
78298;SDS011;67556;55.656;12.590;2024-02-16T13:45:48;9.13;;;7.38;;
78298;SDS011;67556;55.656;12.590;2024-02-16T13:48:22;8.50;;;7.10;;
78298;SDS011;67556;55.656;12.590;2024-02-16T13:50:54;11.07;;;7.10;;
78298;SDS011;67556;55.656;12.590;2024-02-16T13:53:39;13.40;;;8.40;;
78298;SDS011;67556;55.656;12.590;2024-02-16T13:56:08;11.43;;;7.07;;
78298;SDS011;67556;55.656;12.590;2024-02-16T13:58:35;9.38;;;7.07;;
78298;SDS011;67556;55.656;12.590;2024-02-16T14:01:21;11.27;;;6.35;;
78298;SDS011;67556;55.656;12.590;2024-02-16T14:03:50;9.27;;;6.70;;
78298;SDS011;67556;55.656;12.590;2024-02-16T14:06:35;8.82;;;7.55;;
78298;SDS011;67556;55.656;12.590;2024-02-16T14:09:16;10.60;;;7.97;;
78298;SDS011;67556;55.656;12.590;2024-02-16T14:11:53;10.38;;;8.15;;
78298;SDS011;67556;55.656;12.590;2024-02-16T14:14:31;13.00;;;7.32;;
78298;SDS011;67556;55.656;12.590;2024-02-16T14:17:04;10.25;;;7.18;;
78298;SDS011;67556;55.656;12.590;2024-02-16T14:19:39;11.77;;;8.23;;
78298;SDS011;67556;55.656;12.590;2024-02-16T14:22:15;10.18;;;7.55;;
78298;SDS011;67556;55.656;12.590;2024-02-16T14:25:10;10.77;;;7.78;;
78298;SDS011;67556;55.656;12.590;2024-02-16T14:27:48;11.93;;;7.78;;
78298;SDS011;67556;55.656;12.590;2024-02-16T14:30:18;11.15;;;7.07;;
78298;SDS011;67556;55.656;12.590;2024-02-16T14:32:57;10.60;;;7.38;;
78298;SDS011;67556;55.656;12.590;2024-02-16T14:35:34;8.93;;;7.30;;
78298;SDS011;67556;55.656;12.590;2024-02-16T14:38:04;9.25;;;7.55;;
78298;SDS011;67556;55.656;12.590;2024-02-16T14:40:49;12.75;;;7.55;;
78298;SDS011;67556;55.656;12.590;2024-02-16T14:43:17;10.20;;;7.88;;
78298;SDS011;67556;55.656;12.590;2024-02-16T14:45:56;9.43;;;6.97;;
78298;SDS011;67556;55.656;12.590;2024-02-16T14:48:24;8.77;;;7.15;;